Time;durP1;ratioP1;P1;durP2;ratioP2;P2;SDS_P1;SDS_P2;PMS_P1;PMS_P2;Temp;Humidity;BMP_temperature;BMP_pressure;BME280_temperature;BME280_humidity;BME280_pressure;Samples;Min_cycle;Max_cycle;Signal;HPM_P1;HPM_P2
2022/03/06 00:02:06;;;;;;;28.83;3.53;;;;;;;23.72;50.66;100058.03;7312763;19;129599;-39
2022/03/06 00:04:31;;;;;;;22.33;3.10;;;;;;;23.76;50.76;100068.13;7313037;19;129028;-39
2022/03/06 00:06:57;;;;;;;24.17;3.10;;;;;;;23.73;50.47;100063.16;7311771;19;129206;-38
2022/03/06 00:09:23;;;;;;;17.53;2.23;;;;;;;23.65;52.51;100064.84;7310382;19;130839;-38
2022/03/06 00:11:48;;;;;;;38.40;4.20;;;;;;;23.47;52.58;100056.84;7312131;19;130427;-38
2022/03/06 00:14:14;;;;;;;28.80;3.37;;;;;;;23.42;52.00;100064.28;7310935;19;129085;-38
2022/03/06 00:16:39;;;;;;;37.10;4.38;;;;;;;23.36;51.61;100049.13;7309579;19;154092;-39
2022/03/06 00:19:04;;;;;;;24.40;3.53;;;;;;;23.57;51.19;100067.34;7311904;19;129378;-39
2022/03/06 00:21:30;;;;;;;19.52;2.75;;;;;;;23.72;51.28;100071.16;7310166;19;158532;-38
2022/03/06 00:23:55;;;;;;;24.30;3.20;;;;;;;23.83;50.46;100068.38;7311797;19;129208;-39
2022/03/06 00:26:21;;;;;;;18.50;3.13;;;;;;;23.94;49.96;100049.81;7309009;19;154178;-39
2022/03/06 00:28:46;;;;;;;31.33;4.03;;;;;;;24.14;49.63;100068.03;7309840;19;159270;-39
2022/03/06 00:31:12;;;;;;;22.53;3.00;;;;;;;24.30;48.88;100073.47;7311142;19;157546;-38
2022/03/06 00:33:37;;;;;;;46.90;4.82;;;;;;;24.45;49.02;100072.03;7309847;19;128717;-40
2022/03/06 00:36:03;;;;;;;37.93;4.40;;;;;;;24.55;48.74;100071.13;7309073;19;153818;-39
2022/03/06 00:38:28;;;;;;;27.67;3.33;;;;;;;24.52;48.20;100072.25;7309842;19;130163;-41
2022/03/06 00:40:53;;;;;;;19.67;2.80;;;;;;;24.49;48.83;100073.38;7309740;19;158191;-43
2022/03/06 00:43:18;;;;;;;27.70;3.63;;;;;;;24.44;48.36;100069.53;7310275;19;149160;-39
2022/03/06 00:45:44;;;;;;;48.78;4.85;;;;;;;24.35;48.54;100071.25;7307871;19;154086;-38
2022/03/06 00:48:09;;;;;;;40.63;4.77;;;;;;;24.29;49.45;100071.00;7307905;19;130724;-39
2022/03/06 00:50:36;;;;;;;39.78;4.10;;;;;;;24.20;49.24;100077.94;7307992;19;158405;-39
2022/03/06 00:53:02;;;;;;;24.52;3.25;;;;;;;24.06;49.97;100067.94;7311389;19;129066;-38
2022/03/06 00:55:27;;;;;;;50.70;5.27;;;;;;;23.98;49.79;100078.28;7308571;19;131229;-39
2022/03/06 00:57:52;;;;;;;37.87;3.90;;;;;;;23.86;50.41;100079.44;7307767;19;130231;-40
2022/03/06 01:00:18;;;;;;;9.47;2.27;;;;;;;23.80;50.30;100079.97;7308947;19;158430;-39
2022/03/06 01:02:43;;;;;;;33.90;3.73;;;;;;;23.71;50.78;100080.00;7310953;19;129217;-39
2022/03/06 01:05:09;;;;;;;30.58;3.78;;;;;;;23.65;51.30;100076.13;7311762;19;129412;-38
2022/03/06 01:07:35;;;;;;;27.17;3.38;;;;;;;23.58;50.80;100084.72;7309495;19;130065;-38
2022/03/06 01:10:00;;;;;;;41.47;4.57;;;;;;;23.50;51.43;100077.56;7315679;19;130257;-39
2022/03/06 01:12:26;;;;;;;19.58;2.45;;;;;;;23.48;51.42;100074.25;7315997;19;155274;-39
2022/03/06 01:14:51;;;;;;;26.67;2.90;;;;;;;23.46;51.94;100081.44;7316505;19;129158;-38
2022/03/06 01:17:16;;;;;;;18.67;2.72;;;;;;;23.43;52.14;100080.88;7314813;19;151800;-37
2022/03/06 01:19:42;;;;;;;21.42;2.72;;;;;;;23.46;52.36;100070.94;7316885;19;129194;-39
2022/03/06 01:22:07;;;;;;;27.60;3.33;;;;;;;23.42;52.69;100074.78;7318336;19;129083;-38
2022/03/06 01:24:32;;;;;;;24.00;2.93;;;;;;;23.46;52.67;100076.19;7315491;19;154129;-38
2022/03/06 01:26:57;;;;;;;21.13;2.93;;;;;;;23.53;52.46;100068.56;7314068;19;158334;-40
2022/03/06 01:29:23;;;;;;;23.53;2.90;;;;;;;23.61;52.14;100068.69;7315551;19;159101;-36
2022/03/06 01:31:49;;;;;;;27.38;3.20;;;;;;;23.64;52.39;100078.91;7315674;19;154532;-39
2022/03/06 01:34:14;;;;;;;29.23;2.97;;;;;;;23.69;51.49;100076.69;7314629;19;128986;-39
2022/03/06 01:36:39;;;;;;;33.33;3.92;;;;;;;23.39;52.82;100075.06;7313430;19;158214;-38
2022/03/06 01:39:06;;;;;;;34.03;4.03;;;;;;;23.29;53.00;100073.44;7314168;19;159883;-39
2022/03/06 01:41:35;;;;;;;29.35;3.70;;;;;;;23.27;52.63;100076.19;7316581;19;128990;-39
2022/03/06 01:44:01;;;;;;;25.98;3.20;;;;;;;23.27;51.51;100063.06;7316367;19;128962;-39
2022/03/06 01:46:26;;;;;;;19.87;2.50;;;;;;;23.50;51.41;100080.19;7315268;19;130607;-43
2022/03/06 01:48:52;;;;;;;20.00;2.75;;;;;;;23.65;51.04;100081.38;7315443;19;131531;-39
2022/03/06 01:51:17;;;;;;;20.40;2.78;;;;;;;23.79;50.36;100078.34;7313723;19;143088;-39
2022/03/06 01:53:43;;;;;;;21.27;3.17;;;;;;;23.93;49.85;100074.44;7316541;19;129049;-42
2022/03/06 01:56:10;;;;;;;33.17;3.83;;;;;;;24.09;49.76;100074.69;7312755;19;129220;-37
2022/03/06 01:58:36;;;;;;;27.33;3.17;;;;;;;24.23;49.35;100069.78;7315940;19;129130;-38
2022/03/06 02:01:01;;;;;;;13.70;2.17;;;;;;;24.35;48.59;100062.53;7312741;19;129143;-38
2022/03/06 02:03:26;;;;;;;22.95;2.65;;;;;;;24.48;48.66;100067.47;7316909;19;129031;-38
2022/03/06 02:05:52;;;;;;;26.83;3.35;;;;;;;24.46;48.95;100065.78;7315272;19;150607;-39
2022/03/06 02:08:17;;;;;;;27.57;3.47;;;;;;;24.44;48.87;100065.09;7309835;19;158549;-41
2022/03/06 02:10:42;;;;;;;35.25;4.13;;;;;;;24.31;49.03;100053.28;7316247;19;129138;-38
2022/03/06 02:13:08;;;;;;;33.57;4.07;;;;;;;24.29;49.32;100061.31;7314427;19;129363;-39
2022/03/06 02:15:33;;;;;;;34.00;3.83;;;;;;;24.19;49.02;100060.53;7312927;19;154624;-39
2022/03/06 02:17:59;;;;;;;18.42;2.88;;;;;;;24.08;49.78;100057.28;7313485;19;130972;-38
2022/03/06 02:20:25;;;;;;;18.33;2.50;;;;;;;24.00;50.24;100065.84;7315518;19;129201;-39
2022/03/06 02:22:53;;;;;;;24.30;2.97;;;;;;;23.87;50.13;100060.06;7314770;19;129087;-39
2022/03/06 02:25:27;;;;;;;38.35;4.30;;;;;;;23.77;50.87;100050.53;7314189;19;132586;-38
2022/03/06 02:27:55;;;;;;;25.50;3.00;;;;;;;23.67;51.22;100053.19;7312805;19;130336;-40
2022/03/06 02:30:23;;;;;;;19.95;2.92;;;;;;;23.59;51.35;100055.72;7315498;19;129040;-38
2022/03/06 02:32:50;;;;;;;21.23;2.92;;;;;;;23.44;51.74;100038.75;7314900;19;128798;-38
2022/03/06 02:35:16;;;;;;;28.05;3.38;;;;;;;23.46;51.67;100046.47;7314555;19;129125;-38
2022/03/06 02:37:42;;;;;;;39.10;4.30;;;;;;;23.40;52.14;100037.38;7312973;19;129363;-39
2022/03/06 02:40:09;;;;;;;32.53;3.97;;;;;;;23.36;51.76;100038.63;7315024;19;128982;-39
2022/03/06 02:42:37;;;;;;;28.95;3.45;;;;;;;23.33;52.33;100038.91;7314644;19;128927;-40
2022/03/06 02:45:11;;;;;;;29.83;3.53;;;;;;;23.23;52.77;100031.03;7313261;19;129283;-40
2022/03/06 02:47:37;;;;;;;29.02;3.45;;;;;;;23.32;52.45;100047.72;7312695;19;131285;-39
2022/03/06 02:50:07;;;;;;;35.53;3.95;;;;;;;23.30;53.22;100039.19;7313723;19;129880;-38
2022/03/06 02:52:33;;;;;;;30.50;3.33;;;;;;;23.38;53.49;100038.47;7314157;19;129094;-40
2022/03/06 02:54:58;;;;;;;26.73;3.00;;;;;;;23.46;52.58;100034.19;7313180;19;130755;-38
2022/03/06 02:57:23;;;;;;;23.13;2.92;;;;;;;23.40;52.94;100040.00;7310181;19;158811;-39
2022/03/06 02:59:49;;;;;;;17.17;2.90;;;;;;;23.21;52.95;100040.81;7313698;19;129023;-39
2022/03/06 03:02:14;;;;;;;27.20;3.03;;;;;;;23.16;52.47;100036.94;7311015;19;153056;-39
2022/03/06 03:04:39;;;;;;;36.92;4.10;;;;;;;23.14;52.69;100033.63;7311852;19;158588;-39
2022/03/06 03:07:07;;;;;;;28.97;3.47;;;;;;;23.32;52.43;100037.25;7312314;19;130917;-40
2022/03/06 03:09:33;;;;;;;23.88;2.90;;;;;;;23.44;51.81;100040.53;7313180;19;129776;-38
2022/03/06 03:11:58;;;;;;;29.52;3.35;;;;;;;23.59;50.99;100044.38;7313150;19;128992;-38
2022/03/06 03:14:24;;;;;;;28.60;3.33;;;;;;;23.78;50.54;100055.69;7312581;19;130156;-39
2022/03/06 03:16:49;;;;;;;26.42;3.17;;;;;;;23.90;50.07;100061.59;7310822;19;157933;-38
2022/03/06 03:19:15;;;;;;;20.83;2.97;;;;;;;24.08;49.75;100063.34;7313097;19;129094;-38
2022/03/06 03:21:40;;;;;;;22.63;2.65;;;;;;;24.20;49.06;100061.34;7312017;19;155027;-39
2022/03/06 03:24:06;;;;;;;28.15;3.22;;;;;;;24.31;48.85;100064.63;7312790;19;129216;-40
2022/03/06 03:26:31;;;;;;;31.67;3.40;;;;;;;24.37;48.60;100063.22;7311140;19;129342;-40
2022/03/06 03:28:56;;;;;;;18.00;2.42;;;;;;;24.40;49.04;100058.50;7311352;19;154426;-38
2022/03/06 03:31:22;;;;;;;20.17;2.47;;;;;;;24.36;48.50;100057.13;7309786;19;154191;-39
2022/03/06 03:33:47;;;;;;;44.67;4.68;;;;;;;24.20;49.38;100042.97;7309248;19;158578;-39
2022/03/06 03:36:12;;;;;;;24.80;3.15;;;;;;;24.21;49.50;100066.47;7309788;19;129223;-37
2022/03/06 03:38:39;;;;;;;26.30;2.93;;;;;;;24.11;50.04;100063.03;7312232;19;129849;-37
2022/03/06 03:41:05;;;;;;;25.83;3.17;;;;;;;23.93;49.74;100048.97;7313406;19;129049;-39
2022/03/06 03:43:31;;;;;;;10.50;2.17;;;;;;;23.92;49.94;100063.09;7312623;19;129185;-39
2022/03/06 03:45:59;;;;;;;23.13;2.87;;;;;;;23.74;50.12;100056.94;7311528;19;136138;-40
2022/03/06 03:48:25;;;;;;;25.23;3.00;;;;;;;23.71;50.84;100069.50;7310297;19;129038;-40
2022/03/06 03:50:52;;;;;;;34.93;3.87;;;;;;;23.58;51.02;100061.94;7311699;19;129675;-42
2022/03/06 03:53:17;;;;;;;29.27;3.55;;;;;;;23.57;51.39;100068.16;7313912;19;130249;-38
2022/03/06 03:55:43;;;;;;;45.73;4.70;;;;;;;23.69;50.85;100064.41;7310237;19;129185;-38
2022/03/06 03:58:08;;;;;;;36.28;3.72;;;;;;;24.08;49.51;100052.81;7309252;19;155218;-39
2022/03/06 04:00:33;;;;;;;26.50;3.00;;;;;;;24.46;48.99;100046.56;7311668;19;154609;-39
2022/03/06 04:02:58;;;;;;;50.13;4.72;;;;;;;25.04;46.77;100060.19;7308362;19;151170;-40
2022/03/06 04:05:24;;;;;;;46.13;5.28;;;;;;;25.41;46.51;100071.38;7309949;19;159811;-39
2022/03/06 04:07:50;;;;;;;40.57;3.97;;;;;;;25.75;45.37;100063.56;7308883;19;128889;-38
2022/03/06 04:10:15;;;;;;;13.55;2.28;;;;;;;25.99;44.47;100066.34;7310538;19;154548;-40
2022/03/06 04:12:40;;;;;;;24.87;3.13;;;;;;;26.14;44.29;100067.44;7310195;19;157198;-37
2022/03/06 04:15:06;;;;;;;31.20;3.73;;;;;;;26.22;44.12;100068.31;7311220;19;130238;-39
2022/03/06 04:17:31;;;;;;;26.13;2.83;;;;;;;26.36;43.88;100065.06;7309805;19;129468;-41
2022/03/06 04:19:56;;;;;;;19.43;2.53;;;;;;;26.40;43.94;100071.69;7309225;19;154096;-38
2022/03/06 04:22:21;;;;;;;20.17;2.37;;;;;;;26.47;43.77;100066.59;7310046;19;158660;-39
2022/03/06 04:24:47;;;;;;;32.67;3.53;;;;;;;26.45;43.79;100064.13;7311142;19;142033;-39
2022/03/06 04:27:12;;;;;;;19.93;2.60;;;;;;;26.49;43.74;100062.81;7308125;19;154994;-39
2022/03/06 04:29:37;;;;;;;25.63;2.97;;;;;;;26.52;44.01;100065.13;7310064;19;135619;-40
2022/03/06 04:32:03;;;;;;;24.02;2.88;;;;;;;26.48;43.52;100053.25;7309087;19;159307;-39
2022/03/06 04:34:28;;;;;;;26.57;3.03;;;;;;;26.63;43.42;100072.75;7310987;19;130028;-39
2022/03/06 04:36:53;;;;;;;27.03;2.83;;;;;;;26.59;43.96;100066.13;7308824;19;154416;-39
2022/03/06 04:39:19;;;;;;;17.70;2.43;;;;;;;26.62;43.20;100065.81;7309401;19;154019;-38
2022/03/06 04:41:44;;;;;;;37.67;4.03;;;;;;;26.62;43.27;100070.25;7308449;19;158519;-39
2022/03/06 04:44:09;;;;;;;28.17;3.37;;;;;;;26.68;43.39;100074.91;7316125;19;158717;-38
2022/03/06 04:46:34;;;;;;;34.20;3.57;;;;;;;26.71;43.52;100075.44;7315416;19;154414;-40
2022/03/06 04:49:00;;;;;;;36.40;3.83;;;;;;;26.70;43.21;100075.59;7316339;19;151589;-37
2022/03/06 04:51:25;;;;;;;26.50;3.13;;;;;;;26.76;43.59;100078.41;7317462;19;139758;-37
2022/03/06 04:53:50;;;;;;;24.97;3.00;;;;;;;26.71;43.00;100075.44;7315290;19;157265;-41
2022/03/06 04:56:16;;;;;;;23.77;2.90;;;;;;;26.71;43.42;100085.97;7312578;19;155390;-38
2022/03/06 04:58:41;;;;;;;26.23;3.07;;;;;;;26.76;43.43;100082.84;7316500;19;131119;-39
2022/03/06 05:01:06;;;;;;;28.07;3.07;;;;;;;26.71;43.31;100085.97;7315507;19;158743;-38
2022/03/06 05:03:32;;;;;;;40.07;4.10;;;;;;;26.70;43.06;100079.06;7315618;19;131107;-38
2022/03/06 05:05:57;;;;;;;22.10;2.77;;;;;;;26.74;43.05;100082.22;7316662;19;129249;-38
2022/03/06 05:08:22;;;;;;;43.70;4.67;;;;;;;26.78;43.11;100078.25;7310447;19;154677;-38
2022/03/06 05:10:48;;;;;;;30.43;3.27;;;;;;;26.68;43.75;100081.03;7318185;19;130154;-38
2022/03/06 05:13:13;;;;;;;24.20;2.73;;;;;;;26.53;43.74;100077.31;7315701;19;158390;-39
2022/03/06 05:15:39;;;;;;;31.30;3.40;;;;;;;26.39;43.68;100079.75;7314918;19;130425;-39
2022/03/06 05:18:04;;;;;;;34.13;3.83;;;;;;;26.33;44.70;100075.91;7312585;19;129112;-40
2022/03/06 05:20:30;;;;;;;18.13;2.50;;;;;;;26.26;44.84;100077.53;7317066;19;129081;-38
2022/03/06 05:22:55;;;;;;;21.23;2.70;;;;;;;26.11;44.74;100075.66;7316895;19;131047;-40
2022/03/06 05:25:21;;;;;;;26.23;3.53;;;;;;;25.84;45.01;100063.47;7317504;19;129070;-40
2022/03/06 05:27:46;;;;;;;50.80;4.93;;;;;;;25.81;46.10;100062.94;7315365;19;129026;-39
2022/03/06 05:30:13;;;;;;;31.63;3.30;;;;;;;25.74;45.68;100070.63;7313753;19;129863;-40
2022/03/06 05:32:38;;;;;;;;;;;;;;;25.67;46.08;100072.22;7316597;19;130788;-38
2022/03/06 05:35:04;;;;;;;23.80;2.77;;;;;;;25.70;45.62;100067.47;7316868;19;129467;-38
2022/03/06 05:37:29;;;;;;;24.20;2.60;;;;;;;25.74;45.91;100073.28;7310942;19;129311;-38
2022/03/06 05:39:55;;;;;;;22.35;2.58;;;;;;;25.76;45.48;100071.31;7314729;19;130829;-39
2022/03/06 05:42:20;;;;;;;21.67;2.92;;;;;;;25.77;45.97;100067.69;7313362;19;131100;-39
2022/03/06 05:44:45;;;;;;;36.07;3.70;;;;;;;25.88;45.82;100077.97;7317154;19;129220;-38
2022/03/06 05:47:11;;;;;;;41.70;4.35;;;;;;;25.94;45.40;100076.50;7314613;19;136497;-40
2022/03/06 05:49:36;;;;;;;23.43;2.57;;;;;;;25.99;45.59;100082.97;7312596;19;159291;-39
2022/03/06 05:52:02;;;;;;;10.93;2.00;;;;;;;26.06;45.40;100078.78;7315521;19;129699;-37
2022/03/06 05:54:28;;;;;;;52.60;4.57;;;;;;;26.10;44.84;100080.09;7311782;19;129065;-39
2022/03/06 05:56:54;;;;;;;29.73;3.20;;;;;;;26.13;45.08;100082.41;7312488;19;129092;-39
2022/03/06 05:59:19;;;;;;;23.07;2.83;;;;;;;26.15;44.93;100084.88;7314941;19;130094;-39
2022/03/06 06:01:44;;;;;;;54.63;5.27;;;;;;;26.16;45.05;100082.13;7313296;19;131881;-40
2022/03/06 06:04:11;;;;;;;17.23;2.50;;;;;;;26.15;44.99;100075.19;7313931;19;155266;-39
2022/03/06 06:06:36;;;;;;;50.85;4.68;;;;;;;26.28;44.18;100090.59;7312915;19;130011;-38
2022/03/06 06:09:02;;;;;;;36.73;3.80;;;;;;;26.31;44.02;100083.16;7311353;19;158265;-39
2022/03/06 06:11:27;;;;;;;31.47;3.30;;;;;;;26.31;44.35;100082.34;7315032;19;130345;-39
2022/03/06 06:13:52;;;;;;;21.63;2.47;;;;;;;26.33;44.26;100091.75;7313447;19;154425;-40
2022/03/06 06:16:18;;;;;;;28.50;3.17;;;;;;;26.36;44.11;100086.16;7310856;19;153920;-39
2022/03/06 06:18:43;;;;;;;46.00;4.53;;;;;;;26.42;43.75;100085.53;7311751;19;158828;-39
2022/03/06 06:21:10;;;;;;;37.83;3.80;;;;;;;26.44;44.33;100088.84;7315157;19;130761;-38
2022/03/06 06:23:35;;;;;;;31.25;3.20;;;;;;;26.39;44.20;100091.13;7314620;19;128834;-39
2022/03/06 06:26:01;;;;;;;30.57;3.33;;;;;;;26.26;45.05;100100.44;7314249;19;138211;-39
2022/03/06 06:28:26;;;;;;;23.00;2.60;;;;;;;26.11;44.51;100096.75;7309754;19;148798;-38
2022/03/06 06:30:51;;;;;;;35.50;3.73;;;;;;;25.97;45.48;100095.47;7311930;19;158010;-40
2022/03/06 06:33:16;;;;;;;19.90;2.77;;;;;;;25.88;45.81;100096.44;7309639;19;154512;-39
2022/03/06 06:35:42;;;;;;;34.90;3.47;;;;;;;25.78;45.84;100097.50;7311191;19;153472;-39
2022/03/06 06:38:07;;;;;;;29.03;3.03;;;;;;;25.78;45.45;100095.69;7310739;19;129249;-39
2022/03/06 06:40:32;;;;;;;28.53;3.10;;;;;;;25.83;45.67;100106.59;7312622;19;158621;-39
2022/03/06 06:42:58;;;;;;;26.30;3.17;;;;;;;25.84;45.50;100097.69;7311854;19;154371;-39
2022/03/06 06:45:23;;;;;;;49.07;5.10;;;;;;;25.91;45.53;100097.91;7313251;19;129497;-39
2022/03/06 06:47:49;;;;;;;28.40;3.17;;;;;;;26.00;45.21;100095.16;7311271;19;130799;-39
2022/03/06 06:50:14;;;;;;;30.13;3.10;;;;;;;26.04;45.19;100091.28;7310100;19;129229;-39
2022/03/06 06:52:39;;;;;;;31.37;3.37;;;;;;;26.13;45.65;100100.88;7311801;19;154565;-40
2022/03/06 06:55:06;;;;;;;33.10;3.47;;;;;;;26.19;44.91;100104.69;7311369;19;154049;-39
2022/03/06 06:57:32;;;;;;;39.45;4.03;;;;;;;26.23;44.97;100101.56;7309384;19;130825;-38
2022/03/06 06:59:58;;;;;;;30.90;3.38;;;;;;;26.28;44.56;100099.28;7313307;19;129306;-39
2022/03/06 07:02:24;;;;;;;47.55;4.43;;;;;;;26.33;44.70;100112.84;7311274;19;129079;-37
2022/03/06 07:04:49;;;;;;;41.87;4.20;;;;;;;26.36;44.74;100109.88;7311989;19;128957;-38
2022/03/06 07:07:15;;;;;;;19.17;2.53;;;;;;;26.40;44.70;100108.59;7311123;19;158304;-41
2022/03/06 07:09:41;;;;;;;33.13;3.47;;;;;;;26.38;44.26;100115.00;7309181;19;160021;-38
2022/03/06 07:12:07;;;;;;;25.17;3.10;;;;;;;26.47;44.28;100120.16;7313538;19;128903;-38
2022/03/06 07:14:32;;;;;;;29.10;3.03;;;;;;;26.41;44.19;100112.88;7312446;19;131011;-43
2022/03/06 07:16:58;;;;;;;28.07;2.93;;;;;;;26.52;44.00;100123.16;7306533;19;131168;-39
2022/03/06 07:19:23;;;;;;;22.17;2.80;;;;;;;26.49;43.80;100126.13;7311751;19;130973;-39
2022/03/06 07:21:49;;;;;;;51.80;4.93;;;;;;;26.47;43.98;100125.44;7311249;19;130357;-38
2022/03/06 07:24:14;;;;;;;23.97;2.77;;;;;;;26.26;44.36;100111.81;7311190;19;154248;-39
2022/03/06 07:26:39;;;;;;;24.70;3.13;;;;;;;26.21;45.03;100124.66;7311104;19;130588;-39
2022/03/06 07:29:05;;;;;;;29.10;3.10;;;;;;;26.10;44.88;100122.25;7312160;19;129305;-39
2022/03/06 07:31:30;;;;;;;22.07;2.57;;;;;;;25.95;45.51;100122.97;7311618;19;153289;-38
2022/03/06 07:33:55;;;;;;;33.90;3.40;;;;;;;25.72;45.46;100112.09;7308852;19;154326;-37
2022/03/06 07:36:20;;;;;;;22.23;2.40;;;;;;;25.81;46.22;100120.91;7309825;19;129115;-39
2022/03/06 07:38:46;;;;;;;40.47;4.03;;;;;;;25.79;45.61;100122.84;7310474;19;130005;-39
2022/03/06 07:41:12;;;;;;;29.07;2.87;;;;;;;25.76;45.79;100108.19;7308641;19;154653;-38
2022/03/06 07:43:38;;;;;;;32.22;3.53;;;;;;;25.91;45.53;100125.09;7311386;19;129156;-38
2022/03/06 07:46:03;;;;;;;31.37;3.43;;;;;;;25.96;45.94;100125.47;7309817;19;130110;-39
2022/03/06 07:48:28;;;;;;;25.37;2.73;;;;;;;26.02;45.48;100124.84;7308718;19;130541;-39
2022/03/06 07:50:54;;;;;;;36.63;3.72;;;;;;;26.11;45.04;100123.94;7311125;19;129263;-39
2022/03/06 07:53:19;;;;;;;21.93;2.63;;;;;;;26.10;44.77;100111.72;7307617;19;154292;-39
2022/03/06 07:55:44;;;;;;;33.63;3.73;;;;;;;26.23;44.90;100132.41;7307968;19;129845;-40
2022/03/06 07:58:09;;;;;;;48.90;4.73;;;;;;;26.31;44.27;100125.34;7306456;19;152856;-39
2022/03/06 08:00:35;;;;;;;39.77;3.93;;;;;;;26.30;44.49;100134.25;7309370;19;155121;-39
2022/03/06 08:03:00;;;;;;;27.80;2.97;;;;;;;26.41;44.53;100136.59;7308808;19;153998;-40
2022/03/06 08:05:25;;;;;;;51.73;5.30;;;;;;;26.42;44.29;100127.72;7308750;19;158571;-39
2022/03/06 08:07:51;;;;;;;26.23;2.90;;;;;;;26.44;44.74;100125.75;7306818;19;130482;-39
2022/03/06 08:10:16;;;;;;;22.20;2.70;;;;;;;26.42;44.33;100114.53;7310964;19;129090;-39
2022/03/06 08:12:41;;;;;;;38.67;3.70;;;;;;;26.50;44.64;100127.75;7310557;19;129168;-39
2022/03/06 08:15:08;;;;;;;36.50;3.83;;;;;;;26.60;43.69;100125.81;7311274;19;129422;-40
2022/03/06 08:17:35;;;;;;;38.13;3.75;;;;;;;26.59;43.80;100126.78;7305939;19;130893;-40
2022/03/06 08:20:01;;;;;;;28.08;3.15;;;;;;;26.53;44.35;100123.97;7311853;19;130131;-39
2022/03/06 08:22:26;;;;;;;48.23;4.50;;;;;;;26.45;43.93;100127.41;7309207;19;128880;-40
2022/03/06 08:24:53;;;;;;;15.03;2.17;;;;;;;26.25;44.53;100127.78;7309610;19;130061;-39
2022/03/06 08:27:19;;;;;;;19.95;2.55;;;;;;;26.12;45.36;100130.84;7308662;19;130762;-38
2022/03/06 08:29:44;;;;;;;44.40;4.47;;;;;;;25.98;45.06;100126.09;7311347;19;129666;-39
2022/03/06 08:32:09;;;;;;;76.97;6.55;;;;;;;25.84;45.59;100134.59;7308859;19;129335;-39
2022/03/06 08:34:35;;;;;;;59.77;5.50;;;;;;;25.85;45.15;100130.16;7307244;19;158376;-39
2022/03/06 08:37:00;;;;;;;27.77;3.03;;;;;;;25.87;46.13;100136.91;7305154;19;158920;-38
2022/03/06 08:39:25;;;;;;;23.03;2.50;;;;;;;25.85;46.27;100132.78;7309671;19;130348;-39
2022/03/06 08:41:52;;;;;;;35.97;3.63;;;;;;;25.96;45.81;100140.44;7306915;19;154284;-40
2022/03/06 08:44:17;;;;;;;35.13;3.65;;;;;;;26.03;45.22;100134.41;7307569;19;129540;-39
2022/03/06 08:46:42;;;;;;;34.30;3.30;;;;;;;26.10;45.13;100132.00;7308144;19;160114;-40
2022/03/06 08:49:07;;;;;;;40.90;4.07;;;;;;;26.13;45.44;100135.13;7307585;19;154669;-37
2022/03/06 08:51:33;;;;;;;22.63;2.47;;;;;;;26.12;44.76;100128.22;7307631;19;153614;-39
2022/03/06 08:53:59;;;;;;;16.20;2.37;;;;;;;26.25;44.95;100141.78;7309722;19;140476;-40
2022/03/06 08:56:24;;;;;;;20.23;2.37;;;;;;;26.37;45.04;100135.28;7308687;19;130109;-38
2022/03/06 08:58:49;;;;;;;80.60;7.37;;;;;;;26.39;44.49;100133.31;7306655;19;154497;-39
2022/03/06 09:01:15;;;;;;;24.27;2.67;;;;;;;26.36;44.59;100122.25;7306957;19;153873;-38
2022/03/06 09:03:40;;;;;;;22.73;2.40;;;;;;;26.42;44.14;100135.63;7308555;19;129621;-40
2022/03/06 09:06:05;;;;;;;26.40;2.83;;;;;;;26.51;44.21;100137.31;7307924;19;141990;-37
2022/03/06 09:08:31;;;;;;;39.63;4.00;;;;;;;26.55;44.06;100141.28;7305499;19;154403;-39
2022/03/06 09:10:56;;;;;;;34.77;3.37;;;;;;;26.59;44.61;100134.69;7307020;19;130346;-38
2022/03/06 09:13:22;;;;;;;25.60;2.83;;;;;;;26.61;44.13;100135.38;7307416;19;158353;-38
2022/03/06 09:15:47;;;;;;;33.70;3.27;;;;;;;26.60;44.05;100136.38;7305556;19;140020;-39
2022/03/06 09:18:12;;;;;;;33.20;3.57;;;;;;;26.49;44.59;100136.66;7306834;19;128967;-38
2022/03/06 09:20:38;;;;;;;26.93;2.70;;;;;;;26.30;44.34;100128.97;7308311;19;154046;-39
2022/03/06 09:23:05;;;;;;;38.70;3.63;;;;;;;26.22;45.20;100136.84;7308266;19;130091;-40
2022/03/06 09:25:32;;;;;;;38.58;3.95;;;;;;;26.08;45.09;100128.69;7309153;19;130751;-38
2022/03/06 09:27:59;;;;;;;51.28;4.47;;;;;;;25.94;45.33;100127.41;7305439;19;129475;-38
2022/03/06 09:30:24;;;;;;;55.78;5.50;;;;;;;25.84;45.64;100131.94;7313664;19;129419;-38
2022/03/06 09:32:49;;;;;;;26.63;2.50;;;;;;;25.86;45.95;100132.63;7314016;19;155619;-40
2022/03/06 09:35:15;;;;;;;21.33;2.37;;;;;;;25.89;46.14;100129.69;7314813;19;157294;-39
2022/03/06 09:37:40;;;;;;;35.93;3.33;;;;;;;25.93;45.74;100128.41;7312458;19;130830;-39
2022/03/06 09:40:06;;;;;;;30.93;2.93;;;;;;;25.96;46.08;100125.47;7316016;19;129346;-38
2022/03/06 09:42:32;;;;;;;26.33;2.80;;;;;;;26.04;45.44;100128.16;7316050;19;129601;-38
2022/03/06 09:45:03;;;;;;;28.55;2.78;;;;;;;26.14;45.29;100128.88;7316196;19;130457;-37
2022/03/06 09:47:28;;;;;;;28.15;2.80;;;;;;;26.22;45.14;100128.94;7313563;19;129269;-38
2022/03/06 09:49:54;;;;;;;29.93;2.87;;;;;;;26.23;45.19;100122.66;7314882;19;154274;-41
2022/03/06 09:52:19;;;;;;;8.03;1.60;;;;;;;26.31;45.13;100125.34;7315503;19;129383;-39
2022/03/06 09:54:45;;;;;;;22.90;2.60;;;;;;;26.36;44.85;100132.81;7313961;19;157442;-39
2022/03/06 09:57:10;;;;;;;30.23;3.67;;;;;;;26.47;44.09;100135.16;7311315;19;155400;-40
2022/03/06 09:59:35;;;;;;;26.30;2.73;;;;;;;26.48;44.50;100131.50;7312504;19;146974;-38
2022/03/06 10:02:03;;;;;;;26.23;2.73;;;;;;;26.56;44.55;100134.22;7313118;19;159163;-39
2022/03/06 10:04:30;;;;;;;20.80;2.28;;;;;;;26.55;44.00;100136.00;7316483;19;130799;-39
2022/03/06 10:07:09;;;;;;;30.23;2.88;;;;;;;26.60;44.57;100136.38;7311950;19;128867;-38
2022/03/06 10:10:04;;;;;;;25.98;2.72;;;;;;;26.61;43.74;100135.38;7315686;19;129673;-42
2022/03/06 10:12:32;;;;;;;16.95;2.03;;;;;;;26.57;43.79;100141.13;7311128;19;130691;-38
2022/03/06 10:14:59;;;;;;;36.58;3.47;;;;;;;26.44;44.41;100136.31;7314081;19;130466;-39
2022/03/06 10:17:28;;;;;;;42.42;4.07;;;;;;;26.29;45.02;100135.25;7310782;19;130054;-38
2022/03/06 10:20:01;;;;;;;26.13;2.88;;;;;;;26.15;45.48;100138.44;7315519;19;130774;-42
2022/03/06 10:22:30;;;;;;;37.35;3.47;;;;;;;26.01;46.03;100136.38;7313605;19;131339;-39
2022/03/06 10:24:58;;;;;;;29.42;2.83;;;;;;;25.95;45.31;100134.31;7313676;19;130554;-39
2022/03/06 10:27:53;;;;;;;21.67;2.72;;;;;;;25.90;45.62;100147.13;7312045;19;129038;-39
2022/03/06 10:30:34;;;;;;;47.25;4.85;;;;;;;25.93;45.59;100138.94;7312832;19;129483;-39
2022/03/06 10:33:22;;;;;;;46.05;4.32;;;;;;;26.01;45.60;100138.16;7312048;19;130210;-39
2022/03/06 10:35:50;;;;;;;26.77;2.67;;;;;;;26.05;45.69;100145.63;7312034;19;130423;-38
2022/03/06 10:38:34;;;;;;;52.92;4.97;;;;;;;26.13;44.98;100137.75;7309141;19;131722;-38
2022/03/06 10:41:15;;;;;;;63.05;5.55;;;;;;;26.19;45.54;100144.22;7311243;19;129238;-40
2022/03/06 10:43:40;;;;;;;32.75;3.05;;;;;;;26.26;45.12;100143.44;7313479;19;130898;-40
2022/03/06 10:46:10;;;;;;;41.50;4.00;;;;;;;26.25;45.19;100141.78;7309587;19;134728;-39
2022/03/06 10:48:36;;;;;;;15.45;1.98;;;;;;;26.34;45.36;100140.88;7312542;19;129050;-38
2022/03/06 10:51:04;;;;;;;48.78;4.72;;;;;;;26.41;44.97;100136.59;7308753;19;129285;-38
2022/03/06 10:53:30;;;;;;;48.60;4.47;;;;;;;26.46;44.23;100133.50;7306790;19;130313;-38
2022/03/06 10:56:06;;;;;;;42.73;3.87;;;;;;;26.51;44.04;100121.47;7309969;19;130939;-39
2022/03/06 10:58:32;;;;;;;38.83;3.47;;;;;;;26.57;44.51;100131.41;7312676;19;129345;-38
2022/03/06 11:00:57;;;;;;;42.17;4.00;;;;;;;26.61;44.30;100132.72;7310737;19;129568;-37
2022/03/06 11:03:24;;;;;;;19.47;2.33;;;;;;;26.59;44.50;100132.06;7312491;19;129683;-39
2022/03/06 11:05:51;;;;;;;46.42;4.05;;;;;;;26.60;43.82;100124.97;7310700;19;131259;-38